createdAt,value
2023-05-04T00:06:43.356Z,11.44
2023-05-04T00:11:36.832Z,11.23
2023-05-04T00:16:30.273Z,11.22
2023-05-04T00:21:23.708Z,11.33
2023-05-04T00:26:18.390Z,10.96
2023-05-04T00:36:14.973Z,11.14
2023-05-04T00:41:09.428Z,10.98
2023-05-04T01:33:11.196Z,10.58
2023-05-04T01:38:05.534Z,10.51
2023-05-04T01:42:58.814Z,10.38
2023-05-04T01:47:53.261Z,10.43
2023-05-04T01:52:47.902Z,10.39
2023-05-04T01:57:43.189Z,10.35
2023-05-04T02:02:36.552Z,10.20
2023-05-04T02:07:29.936Z,10.27
2023-05-04T03:13:48.124Z,9.61
2023-05-04T03:23:52.508Z,9.56
2023-05-04T03:28:48.538Z,9.54
2023-05-04T04:35:08.760Z,9.50
2023-05-04T04:40:02.543Z,9.43
2023-05-04T04:44:56.100Z,9.44
2023-05-04T04:49:49.416Z,9.66
2023-05-04T04:59:51.192Z,9.97
2023-05-04T05:30:33.984Z,10.61
2023-05-04T05:35:27.447Z,10.66
2023-05-04T05:40:22.415Z,10.71
2023-05-04T05:45:15.831Z,10.77
2023-05-04T05:50:12.438Z,10.83
2023-05-04T05:55:06.678Z,11.01
2023-05-04T05:59:59.978Z,11.15
2023-05-04T06:04:53.318Z,10.95
2023-05-04T06:09:48.027Z,10.89
2023-05-04T06:14:41.604Z,10.94
2023-05-04T06:19:36.568Z,10.77
2023-05-04T06:24:30.728Z,10.75
2023-05-04T06:29:25.906Z,11.01
2023-05-04T06:34:19.561Z,11.15
2023-05-04T06:39:12.899Z,11.30
2023-05-04T06:44:06.772Z,11.28
2023-05-04T06:49:01.742Z,11.40
2023-05-04T06:53:55.067Z,11.58
2023-05-04T06:58:48.856Z,11.69
2023-05-04T07:03:42.845Z,11.93
2023-05-04T07:08:37.640Z,12.12
2023-05-04T07:13:31.014Z,12.20
2023-05-04T07:18:24.621Z,12.44
2023-05-04T07:23:17.973Z,12.69
2023-05-04T07:28:12.770Z,12.98
2023-05-04T07:33:06.284Z,13.42
2023-05-04T07:37:59.588Z,13.78
2023-05-04T07:42:52.864Z,13.84
2023-05-04T07:47:47.564Z,13.95
2023-05-04T07:52:40.866Z,14.18
2023-05-04T07:57:35.831Z,14.47
2023-05-04T08:02:29.309Z,14.72
2023-05-04T08:07:24.024Z,14.84
2023-05-04T08:17:24.574Z,15.23
2023-05-04T08:22:18.029Z,15.50
2023-05-04T08:27:14.723Z,15.86
2023-05-04T08:37:08.548Z,16.02
2023-05-04T08:42:02.262Z,16.13
2023-05-04T08:46:58.261Z,16.27
2023-05-04T08:51:52.474Z,16.46
2023-05-04T08:56:47.476Z,16.60
2023-05-04T09:01:41.117Z,16.81
2023-05-04T09:06:36.077Z,16.95
2023-05-04T09:11:29.637Z,17.01
2023-05-04T09:21:34.640Z,17.13
2023-05-04T09:26:29.441Z,17.13
2023-05-04T09:31:24.957Z,17.35
2023-05-04T09:36:22.062Z,17.46
2023-05-04T09:41:18.401Z,17.51
2023-05-04T09:46:18.768Z,17.52
2023-05-04T09:51:16.104Z,17.66
2023-05-04T09:56:19.907Z,17.82
2023-05-04T10:01:13.441Z,18.02
2023-05-04T10:06:09.047Z,18.00
2023-05-04T10:11:03.885Z,18.16
2023-05-04T10:16:15.270Z,18.18
2023-05-04T10:21:30.324Z,18.16
2023-05-04T10:26:59.554Z,18.19
2023-05-04T10:31:53.780Z,18.23
2023-05-04T10:36:48.762Z,18.33
2023-05-04T10:41:43.421Z,18.51
2023-05-04T10:46:36.893Z,18.63
2023-05-04T10:51:42.384Z,18.79
2023-05-04T10:56:43.533Z,18.82
2023-05-04T11:01:44.803Z,18.90
2023-05-04T11:06:38.536Z,18.92
2023-05-04T11:11:37.633Z,19.04
2023-05-04T11:16:32.361Z,19.14
2023-05-04T11:26:32.457Z,19.32
2023-05-04T11:36:43.549Z,19.70
2023-05-04T11:41:37.847Z,19.74
2023-05-04T11:46:34.446Z,19.93
2023-05-04T11:51:30.012Z,19.88
2023-05-04T11:56:24.730Z,20.07
2023-05-04T12:01:18.099Z,19.97
2023-05-04T12:06:11.634Z,19.95
2023-05-04T12:11:14.933Z,19.71
2023-05-04T12:16:15.391Z,19.70
2023-05-04T12:21:13.667Z,20.04
2023-05-04T12:26:07.688Z,20.09
2023-05-04T12:31:01.029Z,20.08
2023-05-04T12:35:55.812Z,19.91
2023-05-04T12:40:49.273Z,19.74
2023-05-04T12:45:42.543Z,19.78
2023-05-04T12:50:35.891Z,19.89
2023-05-04T12:55:31.272Z,19.97
2023-05-04T13:00:24.830Z,19.98
2023-05-04T13:05:18.578Z,19.99
2023-05-04T13:10:12.511Z,20.02
2023-05-04T13:15:08.769Z,19.97
2023-05-04T13:20:05.970Z,20.10
2023-05-04T13:30:09.206Z,20.20
2023-05-04T13:35:02.501Z,20.07
2023-05-04T13:39:56.410Z,20.07
2023-05-04T13:44:49.773Z,19.95
2023-05-04T13:49:44.521Z,19.97
2023-05-04T13:54:38.812Z,19.83
2023-05-04T13:59:32.257Z,19.92
2023-05-04T14:04:25.771Z,20.10
2023-05-04T14:09:21.094Z,20.13
2023-05-04T14:14:14.396Z,20.08
2023-05-04T14:19:07.737Z,20.05
2023-05-04T14:24:01.028Z,20.08
2023-05-04T14:28:55.698Z,19.96
2023-05-04T14:33:49.100Z,19.87
2023-05-04T14:38:42.902Z,19.74
2023-05-04T14:43:36.147Z,19.71
2023-05-04T14:48:30.791Z,19.87
2023-05-04T14:53:25.027Z,19.90
2023-05-04T14:58:18.852Z,20.01
2023-05-04T15:03:12.496Z,20.02
2023-05-04T15:08:07.522Z,19.97
2023-05-04T15:13:03.265Z,20.01
2023-05-04T15:17:56.700Z,20.02
2023-05-04T15:22:53.729Z,20.10
2023-05-04T15:27:48.737Z,19.98
2023-05-04T15:32:42.051Z,19.99
2023-05-04T15:37:35.657Z,19.99
2023-05-04T15:42:28.970Z,20.01
2023-05-04T15:47:23.927Z,20.10
2023-05-04T15:52:17.292Z,19.98
2023-05-04T15:57:10.591Z,19.90
2023-05-04T16:02:05.985Z,19.80
2023-05-04T16:07:00.729Z,19.88
2023-05-04T16:11:54.296Z,19.99
2023-05-04T16:16:47.650Z,19.81
2023-05-04T16:21:41.026Z,19.89
2023-05-04T16:26:35.717Z,19.92
2023-05-04T16:31:29.139Z,19.94
2023-05-04T16:36:22.524Z,19.98
2023-05-04T16:41:15.937Z,19.89
2023-05-04T16:46:10.953Z,19.99
2023-05-04T16:51:06.165Z,19.92
2023-05-04T16:55:59.491Z,19.83
2023-05-04T17:00:52.810Z,19.76
2023-05-04T17:05:48.254Z,19.61
2023-05-04T17:10:41.864Z,19.56
2023-05-04T17:15:35.172Z,19.53
2023-05-04T17:20:31.950Z,19.57
2023-05-04T17:25:27.450Z,19.55
2023-05-04T17:30:20.769Z,19.62
2023-05-04T17:35:24.590Z,19.59
2023-05-04T17:40:19.609Z,19.45
2023-05-04T17:45:14.605Z,19.26
2023-05-04T17:50:09.097Z,19.22
2023-05-04T17:55:05.143Z,19.14
2023-05-04T18:00:02.262Z,19.01
2023-05-04T18:05:01.938Z,18.89
2023-05-04T18:09:56.105Z,18.75
2023-05-04T18:14:50.143Z,18.58
2023-05-04T18:19:46.527Z,18.51
2023-05-04T18:24:41.323Z,18.42
2023-05-04T18:29:34.584Z,18.32
2023-05-04T18:34:27.980Z,18.15
2023-05-04T18:39:21.477Z,18.05
2023-05-04T18:44:16.311Z,17.93
2023-05-04T18:49:09.891Z,17.80
2023-05-04T18:54:03.327Z,17.69
2023-05-04T18:58:56.626Z,17.57
2023-05-04T19:03:51.401Z,17.38
2023-05-04T19:08:44.709Z,17.21
2023-05-04T19:13:38.037Z,17.12
2023-05-04T19:18:31.387Z,17.07
2023-05-04T19:23:26.119Z,17.03
2023-05-04T19:28:27.929Z,16.82
2023-05-04T19:33:21.688Z,16.67
2023-05-04T19:38:16.084Z,16.66
2023-05-04T19:43:10.793Z,16.68
2023-05-04T19:48:05.600Z,16.67
2023-05-04T19:52:58.929Z,16.65
2023-05-04T19:57:52.389Z,16.56
2023-05-04T20:02:47.771Z,16.57
2023-05-04T20:07:41.304Z,16.44
2023-05-04T20:12:37.562Z,16.27
2023-05-04T20:17:31.040Z,16.24
2023-05-04T20:22:25.805Z,16.22
2023-05-04T20:27:19.138Z,16.18
2023-05-04T20:32:12.520Z,16.12
2023-05-04T20:37:06.859Z,16.06
2023-05-04T20:42:01.911Z,15.99
2023-05-04T20:46:55.415Z,15.92
2023-05-04T20:51:48.711Z,15.86
2023-05-04T20:56:42.095Z,15.86
2023-05-04T21:01:36.878Z,15.70
2023-05-04T21:06:30.196Z,15.58
2023-05-04T21:11:23.658Z,15.38
2023-05-04T21:16:16.996Z,15.46
2023-05-04T21:21:11.835Z,15.48
2023-05-04T21:26:06.241Z,15.33
2023-05-04T21:30:59.968Z,15.27
2023-05-04T21:35:53.356Z,15.36
2023-05-04T21:40:48.031Z,15.33
2023-05-04T21:45:41.299Z,15.24
2023-05-04T21:50:34.618Z,15.30
2023-05-04T21:55:30.397Z,15.07
2023-05-04T22:00:25.664Z,14.96
2023-05-04T22:05:22.163Z,14.96
2023-05-04T22:10:15.529Z,14.84
2023-05-04T22:15:11.402Z,14.82
2023-05-04T22:20:08.186Z,14.80
2023-05-04T22:25:01.695Z,14.64
2023-05-04T22:29:55.018Z,14.75
2023-05-04T22:34:48.424Z,14.78
2023-05-04T22:39:43.184Z,14.61
2023-05-04T22:44:36.578Z,14.67
2023-05-04T22:49:29.856Z,14.68
2023-05-04T22:54:23.201Z,14.77
2023-05-04T22:59:17.917Z,14.87
2023-05-04T23:04:11.641Z,14.61
2023-05-04T23:09:05.384Z,14.42
2023-05-04T23:13:58.675Z,14.37
2023-05-04T23:18:53.363Z,14.48
2023-05-04T23:23:46.755Z,14.39
2023-05-04T23:28:40.052Z,14.29
2023-05-04T23:33:33.354Z,14.29
2023-05-04T23:38:28.145Z,14.14
2023-05-04T23:43:22.926Z,14.11
2023-05-04T23:48:16.210Z,14.06
2023-05-04T23:53:09.518Z,14.09
2023-05-04T23:58:04.885Z,14.20
